Archival Weather

Heathrow

London, United Kingdom (EGLL)

Report from: Tuesday, September 19, 2023 12:50 PM BST
Current time: Tuesday, July 16, 2024 9:37 AM BST

Current weather – Weather history – Daily summaries
Weather forecast

Temperature18.0°C (64.4°F)
Dew point14.0°C (57.2°F)
Winds 22 kts (11.3 m/s, 25.3 mph) Southwest (230°)
Visibility6.2 mi. (10 km)
Clouds Ceiling: Overcast 1,900 ft. (579 m)
Altimeter29.68 in.Hg (1005 mB)
Relative humidity77 %
Density altitude854 ft. (260 m)
Remarks Fully automated report
No significant changes expected in the next two hours
Flight conditions Marginal Visual Meteorological Conditions
Raw dataEGLL 191150Z AUTO 23022KT 9999 OVC019 18/14 Q1005 NOSIG
An error has occurred. This application may no longer respond until reloaded. Reload 🗙